Time;durP1;ratioP1;P1;durP2;ratioP2;P2;SDS_P1;SDS_P2;PMS_P1;PMS_P2;Temp;Humidity;BMP_temperature;BMP_pressure;BME280_temperature;BME280_humidity;BME280_pressure;Samples;Min_cycle;Max_cycle;Signal;HPM_P1;HPM_P2
2023/09/24 00:00:20;;;;;;;10.25;4.00;;;;;;;10.86;100.00;102111.03;5050188;28;20519;-54
2023/09/24 00:02:50;;;;;;;8.38;4.05;;;;;;;10.86;100.00;102107.56;5047829;28;20076;-54
2023/09/24 00:05:19;;;;;;;7.47;3.72;;;;;;;10.90;100.00;102117.88;5050131;28;20116;-53
2023/09/24 00:07:48;;;;;;;7.63;3.67;;;;;;;10.91;100.00;102124.84;5051184;28;20127;-53
2023/09/24 00:10:20;;;;;;;9.65;4.00;;;;;;;10.86;100.00;102121.56;5051173;28;20083;-56
2023/09/24 00:12:49;;;;;;;7.72;4.00;;;;;;;10.76;100.00;102120.28;5050257;28;20045;-53
2023/09/24 00:15:17;;;;;;;8.93;4.05;;;;;;;10.80;100.00;102132.38;5046975;28;20051;-54
2023/09/24 00:17:45;;;;;;;6.78;3.28;;;;;;;10.78;100.00;102131.59;5049537;28;20050;-53
2023/09/24 00:20:16;;;;;;;6.95;3.90;;;;;;;10.73;100.00;102137.06;5051098;28;20400;-55
2023/09/24 00:22:47;;;;;;;7.07;4.20;;;;;;;10.70;100.00;102142.44;5051159;28;20506;-56
2023/09/24 00:25:15;;;;;;;8.82;4.40;;;;;;;10.72;100.00;102150.31;5047668;28;20571;-55
2023/09/24 00:27:43;;;;;;;7.18;3.65;;;;;;;10.68;100.00;102154.00;5050498;28;20136;-55
2023/09/24 00:30:13;;;;;;;7.13;3.80;;;;;;;10.61;100.00;102154.25;5054069;28;20049;-54
2023/09/24 00:32:41;;;;;;;6.68;3.90;;;;;;;10.55;100.00;102149.28;5050469;28;20052;-53
2023/09/24 00:35:10;;;;;;;7.40;3.75;;;;;;;10.54;100.00;102147.56;5050908;28;20990;-54
2023/09/24 00:37:39;;;;;;;8.23;4.18;;;;;;;10.58;100.00;102149.13;5051666;28;20067;-53
2023/09/24 00:40:11;;;;;;;9.90;4.30;;;;;;;10.61;100.00;102153.41;5048331;28;20110;-54
2023/09/24 00:42:40;;;;;;;7.38;3.97;;;;;;;10.51;100.00;102154.72;5051330;28;20044;-53
2023/09/24 00:45:11;;;;;;;8.52;4.28;;;;;;;10.45;100.00;102151.44;5050723;28;20123;-55
2023/09/24 00:47:43;;;;;;;10.20;4.25;;;;;;;10.43;100.00;102150.66;5054156;28;20492;-54
2023/09/24 00:50:12;;;;;;;10.77;4.05;;;;;;;10.34;100.00;102161.56;5054737;28;20045;-54
2023/09/24 00:52:43;;;;;;;8.68;3.78;;;;;;;10.26;100.00;102153.97;5052766;28;20052;-53
2023/09/24 00:55:13;;;;;;;9.48;3.88;;;;;;;10.34;100.00;102160.72;5049429;28;20530;-54
2023/09/24 00:57:42;;;;;;;7.82;3.67;;;;;;;10.36;100.00;102151.00;5051387;28;20440;-55
2023/09/24 01:00:16;;;;;;;7.78;3.95;;;;;;;10.30;100.00;102158.19;5050685;28;20416;-51
2023/09/24 01:02:50;;;;;;;7.75;4.10;;;;;;;10.28;100.00;102157.41;5050864;28;20446;-54
2023/09/24 01:05:18;;;;;;;9.48;4.40;;;;;;;10.29;100.00;102161.75;5050148;28;20148;-55
2023/09/24 01:07:48;;;;;;;11.05;4.50;;;;;;;10.24;100.00;102163.72;5052568;28;20052;-55
2023/09/24 01:10:26;;;;;;;7.60;3.78;;;;;;;10.12;100.00;102159.00;5054204;28;20049;-54
2023/09/24 01:12:55;;;;;;;8.52;4.13;;;;;;;10.11;100.00;102160.75;5054049;28;20052;-54
2023/09/24 01:15:25;;;;;;;11.93;3.92;;;;;;;10.10;100.00;102160.81;5054109;28;20443;-55
2023/09/24 01:17:53;;;;;;;9.18;4.45;;;;;;;10.00;100.00;102154.25;5051491;28;20377;-54
2023/09/24 01:20:22;;;;;;;8.40;4.13;;;;;;;10.04;100.00;102161.94;5049545;28;20056;-53
2023/09/24 01:22:52;;;;;;;9.45;4.38;;;;;;;10.00;100.00;102156.88;5050216;28;20052;-53
2023/09/24 01:25:20;;;;;;;7.05;3.90;;;;;;;10.07;100.00;102163.56;5048463;28;20052;-54
2023/09/24 01:27:49;;;;;;;8.60;3.80;;;;;;;10.09;100.00;102161.72;5050989;28;20049;-54
2023/09/24 01:30:17;;;;;;;9.00;4.45;;;;;;;10.08;100.00;102160.03;5053729;28;20047;-53
2023/09/24 01:32:50;;;;;;;7.93;3.80;;;;;;;10.03;100.00;102154.13;5051206;28;20045;-54
2023/09/24 01:35:25;;;;;;;7.68;3.83;;;;;;;10.03;100.00;102160.22;5049249;28;20536;-54
2023/09/24 01:37:57;;;;;;;8.18;4.10;;;;;;;10.00;100.00;102157.72;5049338;28;20579;-54
2023/09/24 01:40:25;;;;;;;7.07;3.80;;;;;;;9.92;100.00;102155.41;5048336;28;20127;-53
2023/09/24 01:42:57;;;;;;;7.72;4.15;;;;;;;9.88;100.00;102153.81;5048246;28;20412;-55
2023/09/24 01:45:26;;;;;;;7.80;4.20;;;;;;;9.89;100.00;102158.16;5049552;28;20488;-54
2023/09/24 01:47:54;;;;;;;8.70;4.40;;;;;;;9.84;100.00;102157.50;5049551;28;20056;-55
2023/09/24 01:50:26;;;;;;;7.53;4.20;;;;;;;9.79;100.00;102154.22;5053297;28;20523;-53
2023/09/24 01:52:57;;;;;;;9.45;3.92;;;;;;;9.78;100.00;102155.13;5053264;28;20053;-55
2023/09/24 01:55:26;;;;;;;7.25;3.78;;;;;;;9.76;100.00;102151.69;5053384;28;20095;-55
2023/09/24 01:57:54;;;;;;;8.13;3.85;;;;;;;9.74;100.00;102151.75;5053464;28;20068;-54
2023/09/24 02:00:25;;;;;;;9.93;4.72;;;;;;;9.75;100.00;102148.22;5049950;28;20072;-55
2023/09/24 02:02:54;;;;;;;10.60;4.22;;;;;;;9.74;100.00;102146.50;5049654;28;20045;-51
2023/09/24 02:05:24;;;;;;;7.20;3.97;;;;;;;9.70;100.00;102150.19;5049541;28;20076;-54
2023/09/24 02:07:53;;;;;;;7.15;4.43;;;;;;;9.68;100.00;102145.91;5051255;28;20198;-54
2023/09/24 02:10:23;;;;;;;7.47;4.13;;;;;;;9.62;100.00;102153.09;5052941;28;20095;-53
2023/09/24 02:12:52;;;;;;;8.00;4.07;;;;;;;9.68;100.00;102152.03;5049429;28;20515;-55
2023/09/24 02:15:20;;;;;;;7.85;4.22;;;;;;;9.64;100.00;102151.28;5049046;28;20051;-53
2023/09/24 02:17:50;;;;;;;7.38;4.07;;;;;;;9.55;100.00;102156.06;5049609;28;20071;-55
2023/09/24 02:20:22;;;;;;;9.48;4.15;;;;;;;9.53;100.00;102158.75;5050432;28;20045;-55
2023/09/24 02:22:52;;;;;;;10.20;4.50;;;;;;;9.54;100.00;102165.69;5052772;28;20392;-56
2023/09/24 02:25:21;;;;;;;9.32;4.65;;;;;;;9.54;100.00;102170.94;5047631;28;20063;-54
2023/09/24 02:27:51;;;;;;;8.05;4.22;;;;;;;9.46;100.00;102167.78;5049153;28;20041;-55
2023/09/24 02:30:19;;;;;;;8.35;4.10;;;;;;;9.50;100.00;102164.09;5052508;28;20129;-55
2023/09/24 02:32:48;;;;;;;10.00;4.20;;;;;;;9.45;100.00;102171.34;5052681;28;20522;-55
2023/09/24 02:35:17;;;;;;;7.13;3.72;;;;;;;9.47;100.00;102178.25;5049527;28;20438;-55
2023/09/24 02:37:47;;;;;;;7.70;4.30;;;;;;;9.41;100.00;102188.13;5047686;28;20061;-56
2023/09/24 02:40:17;;;;;;;8.63;4.43;;;;;;;9.38;100.00;102183.84;5046820;28;20087;-54
2023/09/24 02:42:47;;;;;;;9.55;4.20;;;;;;;9.38;100.00;102186.47;5048723;28;20131;-56
2023/09/24 02:45:17;;;;;;;11.18;4.70;;;;;;;9.35;100.00;102185.72;5050117;28;20074;-56
2023/09/24 02:47:47;;;;;;;8.45;4.55;;;;;;;9.28;100.00;102183.34;5050090;28;20135;-56
2023/09/24 02:50:16;;;;;;;9.73;4.47;;;;;;;9.25;100.00;102193.09;5047356;28;20640;-53
2023/09/24 02:52:47;;;;;;;8.77;4.50;;;;;;;9.17;100.00;102187.28;5048289;28;20033;-56
2023/09/24 02:55:15;;;;;;;9.07;4.45;;;;;;;9.17;100.00;102187.28;5048805;28;20048;-55
2023/09/24 02:57:46;;;;;;;9.68;4.35;;;;;;;9.17;100.00;102187.28;5052303;28;20140;-55
2023/09/24 03:00:18;;;;;;;9.75;4.78;;;;;;;9.16;100.00;102188.19;5052337;28;20037;-55
2023/09/24 03:02:47;;;;;;;8.75;4.55;;;;;;;9.17;100.00;102192.53;5049293;28;20545;-55
2023/09/24 03:05:20;;;;;;;8.20;4.55;;;;;;;9.21;100.00;102187.09;5048234;28;20049;-57
2023/09/24 03:07:50;;;;;;;9.32;4.32;;;;;;;9.10;100.00;102190.13;5048253;28;20052;-56
2023/09/24 03:10:22;;;;;;;8.57;4.57;;;;;;;9.07;100.00;102189.41;5045857;28;20051;-56
2023/09/24 03:12:51;;;;;;;10.00;4.70;;;;;;;9.06;100.00;102188.53;5048069;28;20452;-55
2023/09/24 03:15:21;;;;;;;8.20;4.80;;;;;;;9.01;100.00;102187.84;5047866;28;20063;-55
2023/09/24 03:17:49;;;;;;;9.40;4.22;;;;;;;8.97;100.00;102186.25;5051926;28;20052;-54
2023/09/24 03:20:18;;;;;;;9.07;4.85;;;;;;;8.93;100.00;102198.66;5051801;28;20411;-56
2023/09/24 03:22:49;;;;;;;9.07;4.32;;;;;;;8.89;100.00;102197.03;5051916;28;20106;-55
2023/09/24 03:25:18;;;;;;;9.70;4.93;;;;;;;8.93;100.00;102201.28;5047448;28;20049;-55
2023/09/24 03:27:46;;;;;;;8.30;4.55;;;;;;;8.94;100.00;102207.34;5048264;28;20076;-55
2023/09/24 03:30:17;;;;;;;11.15;4.60;;;;;;;8.84;100.00;102206.00;5047908;28;20079;-55
2023/09/24 03:32:47;;;;;;;9.43;5.00;;;;;;;8.76;100.00;102204.47;5048289;28;20120;-55
2023/09/24 03:35:19;;;;;;;9.23;5.25;;;;;;;8.79;100.00;102209.66;5048241;28;20435;-55
2023/09/24 03:37:47;;;;;;;10.07;5.10;;;;;;;8.79;100.00;102219.25;5051547;28;20047;-56
2023/09/24 03:40:18;;;;;;;10.43;5.22;;;;;;;8.74;100.00;102221.19;5051363;28;20510;-54
2023/09/24 03:42:47;;;;;;;7.95;4.97;;;;;;;8.71;100.00;102211.69;5047974;28;20053;-56
2023/09/24 03:45:20;;;;;;;9.30;5.03;;;;;;;8.78;100.00;102214.91;5048830;28;20056;-56
2023/09/24 03:47:50;;;;;;;11.02;5.40;;;;;;;8.73;100.00;102216.88;5051262;28;20377;-56
2023/09/24 03:50:18;;;;;;;8.95;5.30;;;;;;;8.82;100.00;102219.19;5051285;28;20115;-56
2023/09/24 03:52:48;;;;;;;8.20;5.10;;;;;;;8.73;100.00;102224.75;5048245;28;20136;-56
2023/09/24 03:55:17;;;;;;;9.98;4.95;;;;;;;8.68;100.00;102224.88;5045622;28;20052;-56
2023/09/24 03:57:47;;;;;;;9.60;5.10;;;;;;;8.65;100.00;102225.00;5047922;28;20052;-56
2023/09/24 04:00:18;;;;;;;8.23;4.70;;;;;;;8.63;100.00;102222.44;5047794;28;20079;-55
2023/09/24 04:02:50;;;;;;;10.15;5.68;;;;;;;8.65;100.00;102222.38;5051249;28;20053;-57
2023/09/24 04:05:21;;;;;;;11.20;5.35;;;;;;;8.70;100.00;102220.47;5054547;28;20045;-55
2023/09/24 04:07:52;;;;;;;9.85;5.18;;;;;;;8.57;100.00;102221.78;5055340;28;20055;-56
2023/09/24 04:10:22;;;;;;;10.55;5.10;;;;;;;8.52;100.00;102221.09;5055199;28;20049;-55
2023/09/24 04:12:51;;;;;;;10.55;4.97;;;;;;;8.60;100.00;102225.19;5052881;28;20128;-55
2023/09/24 04:15:21;;;;;;;9.43;5.07;;;;;;;8.56;100.00;102227.94;5051601;28;20203;-56
2023/09/24 04:17:52;;;;;;;8.05;4.60;;;;;;;8.63;100.00;102235.56;5051620;28;20442;-57
2023/09/24 04:20:21;;;;;;;8.57;4.65;;;;;;;8.56;100.00;102231.44;5050410;28;20107;-54
2023/09/24 04:22:50;;;;;;;11.27;5.10;;;;;;;8.57;100.00;102235.75;5052257;28;20053;-56
2023/09/24 04:25:21;;;;;;;7.97;4.50;;;;;;;8.44;100.00;102234.44;5051126;28;20649;-55
2023/09/24 04:27:50;;;;;;;9.98;4.70;;;;;;;8.42;100.00;102238.88;5051409;28;20045;-57
2023/09/24 04:30:19;;;;;;;9.68;4.75;;;;;;;8.50;100.00;102243.91;5050895;28;20045;-55
2023/09/24 04:32:49;;;;;;;7.88;4.15;;;;;;;8.36;100.00;102250.44;5051663;28;20110;-57
2023/09/24 04:35:19;;;;;;;9.85;5.00;;;;;;;8.31;100.00;102248.88;5054531;28;20048;-56
2023/09/24 04:37:48;;;;;;;8.05;4.38;;;;;;;8.36;100.00;102252.19;5054855;28;20045;-56
2023/09/24 04:40:16;;;;;;;10.48;4.50;;;;;;;8.42;100.00;102247.59;5054810;28;20052;-55
2023/09/24 04:42:45;;;;;;;9.40;5.18;;;;;;;8.43;100.00;102241.44;5051745;28;20073;-57
2023/09/24 04:45:17;;;;;;;8.63;4.63;;;;;;;8.32;100.00;102250.56;5050826;28;20053;-56
2023/09/24 04:47:46;;;;;;;10.27;5.13;;;;;;;8.39;100.00;102258.19;5053761;28;20139;-54
2023/09/24 04:50:14;;;;;;;7.85;4.50;;;;;;;8.32;100.00;102261.03;5050817;28;20052;-55
2023/09/24 04:52:47;;;;;;;7.43;4.70;;;;;;;8.29;100.00;102256.78;5051671;28;20063;-57
2023/09/24 04:55:15;;;;;;;8.98;4.30;;;;;;;8.14;100.00;102258.16;5048734;28;20045;-55
2023/09/24 04:57:45;;;;;;;8.50;4.82;;;;;;;8.09;100.00;102254.81;5054023;28;20115;-56
2023/09/24 05:00:14;;;;;;;8.52;4.90;;;;;;;8.18;100.00;102259.75;5050403;28;20052;-56
2023/09/24 05:02:43;;;;;;;9.13;4.60;;;;;;;8.15;100.00;102259.84;5051463;28;20107;-55
2023/09/24 05:05:12;;;;;;;8.25;4.55;;;;;;;8.20;100.00;102257.94;5049640;28;20454;-55
2023/09/24 05:07:40;;;;;;;11.18;5.10;;;;;;;8.23;100.00;102260.44;5053405;28;20052;-56
2023/09/24 05:10:10;;;;;;;9.30;4.80;;;;;;;8.21;100.00;102256.19;5053957;28;20551;-55
2023/09/24 05:12:38;;;;;;;9.57;4.97;;;;;;;8.11;100.00;102261.72;5049693;28;20045;-55
2023/09/24 05:15:07;;;;;;;10.68;5.40;;;;;;;8.12;100.00;102265.19;5049846;28;20122;-56
2023/09/24 05:17:36;;;;;;;8.35;4.45;;;;;;;8.16;100.00;102272.03;5050789;28;20396;-53
2023/09/24 05:20:07;;;;;;;8.52;4.78;;;;;;;8.15;100.00;102266.84;5052918;28;20496;-55
2023/09/24 05:22:36;;;;;;;8.55;5.10;;;;;;;8.11;100.00;102273.94;5053914;28;20041;-55
2023/09/24 05:25:04;;;;;;;8.35;4.60;;;;;;;8.07;100.00;102270.59;5048711;28;20510;-56
2023/09/24 05:27:34;;;;;;;10.77;5.05;;;;;;;7.97;100.00;102274.38;5050165;28;20045;-54
2023/09/24 05:30:04;;;;;;;8.43;4.97;;;;;;;7.95;100.00;102284.91;5050196;28;20132;-54
2023/09/24 05:32:33;;;;;;;8.48;5.25;;;;;;;8.04;100.00;102282.91;5050102;28;20457;-55
2023/09/24 05:35:02;;;;;;;8.40;4.90;;;;;;;7.95;100.00;102292.78;5049893;28;20060;-55
2023/09/24 05:37:30;;;;;;;8.85;5.32;;;;;;;8.00;100.00;102286.53;5050625;28;20053;-56
2023/09/24 05:39:58;;;;;;;7.93;5.15;;;;;;;8.07;100.00;102290.66;5053858;28;20520;-56
2023/09/24 05:42:26;;;;;;;8.63;4.97;;;;;;;8.08;100.00;102305.50;5052147;28;20526;-56
2023/09/24 05:44:56;;;;;;;8.10;5.15;;;;;;;8.00;100.00;102312.75;5049273;28;20037;-56
2023/09/24 05:47:26;;;;;;;9.57;5.70;;;;;;;7.86;100.00;102306.16;5048889;28;20535;-56
2023/09/24 05:49:55;;;;;;;11.13;5.45;;;;;;;7.93;100.00;102307.69;5049088;28;20714;-56
2023/09/24 05:52:23;;;;;;;9.45;4.88;;;;;;;8.00;100.00;102317.97;5050719;28;20041;-56
2023/09/24 05:54:51;;;;;;;9.10;5.07;;;;;;;8.05;100.00;102310.84;5053232;28;20045;-56
2023/09/24 05:57:20;;;;;;;8.25;5.18;;;;;;;7.90;100.00;102302.53;5050639;28;20132;-56
2023/09/24 05:59:51;;;;;;;8.32;4.90;;;;;;;8.05;100.00;102308.22;5049594;28;20049;-56
2023/09/24 06:02:24;;;;;;;10.77;5.43;;;;;;;7.94;100.00;102309.41;5049745;28;20416;-57
2023/09/24 06:04:53;;;;;;;11.25;5.45;;;;;;;7.99;100.00;102306.66;5048991;28;20087;-56
2023/09/24 06:07:21;;;;;;;10.00;6.80;;;;;;;8.03;100.00;102307.41;5049370;28;20506;-56
2023/09/24 06:09:49;;;;;;;10.52;5.93;;;;;;;8.15;100.00;102309.63;5048444;28;20102;-57
2023/09/24 06:12:18;;;;;;;9.80;5.63;;;;;;;8.05;100.00;102318.69;5048902;28;20040;-56
2023/09/24 06:14:46;;;;;;;9.38;5.68;;;;;;;8.00;100.00;102317.97;5052624;28;20575;-56
2023/09/24 06:17:15;;;;;;;9.70;5.80;;;;;;;8.11;100.00;102326.34;5049285;28;20055;-56
2023/09/24 06:19:44;;;;;;;9.25;5.40;;;;;;;8.12;100.00;102326.31;5049491;28;20045;-56
2023/09/24 06:22:12;;;;;;;9.65;6.25;;;;;;;8.25;100.00;102318.94;5050531;28;20045;-56
2023/09/24 06:24:40;;;;;;;8.50;5.80;;;;;;;8.25;100.00;102326.78;5049100;28;20069;-56
2023/09/24 06:27:09;;;;;;;9.63;5.70;;;;;;;8.32;100.00;102331.81;5047954;28;20136;-56
2023/09/24 06:29:37;;;;;;;10.43;6.75;;;;;;;8.35;100.00;102334.38;5049855;28;20060;-56
2023/09/24 06:32:05;;;;;;;8.63;6.32;;;;;;;8.39;100.00;102341.22;5052909;28;20041;-56
2023/09/24 06:34:35;;;;;;;13.98;7.43;;;;;;;8.39;100.00;102335.97;5053021;28;20124;-56
2023/09/24 06:37:05;;;;;;;12.05;7.72;;;;;;;8.43;100.00;102348.09;5050390;28;20118;-56
2023/09/24 06:39:34;;;;;;;13.80;9.45;;;;;;;8.60;100.00;102348.44;5048373;28;20500;-56
2023/09/24 06:42:02;;;;;;;14.68;9.70;;;;;;;8.65;100.00;102348.28;5048059;28;20407;-56
2023/09/24 06:44:30;;;;;;;15.85;10.35;;;;;;;8.76;100.00;102347.91;5048804;28;20041;-56
2023/09/24 06:46:59;;;;;;;15.15;10.40;;;;;;;8.78;100.00;102341.72;5049794;28;20084;-54
2023/09/24 06:49:27;;;;;;;17.40;11.93;;;;;;;8.86;100.00;102356.31;5049856;28;20667;-54
2023/09/24 06:51:55;;;;;;;16.92;12.13;;;;;;;9.05;100.00;102352.19;5048512;28;20037;-56
2023/09/24 06:54:25;;;;;;;16.58;11.90;;;;;;;9.09;100.00;102352.91;5048519;28;20095;-54
2023/09/24 06:56:57;;;;;;;;;;;;;;;9.16;100.00;102359.66;5047514;28;20056;-54
2023/09/24 06:59:26;;;;;;;14.50;10.80;;;;;;;9.27;100.00;102356.66;5047894;28;19927;-56
2023/09/24 07:01:54;;;;;;;14.32;11.23;;;;;;;9.37;100.00;102359.84;5050320;28;20048;-54
2023/09/24 07:04:22;;;;;;;18.23;11.75;;;;;;;9.48;100.00;102360.28;5048928;28;20108;-56
2023/09/24 07:06:51;;;;;;;14.52;11.45;;;;;;;9.56;100.00;102355.63;5047716;28;20032;-55
2023/09/24 07:09:19;;;;;;;16.00;11.13;;;;;;;9.72;100.00;102357.66;5047075;28;20076;-55
2023/09/24 07:11:49;;;;;;;16.65;11.80;;;;;;;9.84;100.00;102354.56;5045757;28;20399;-56
2023/09/24 07:14:19;;;;;;;15.15;10.50;;;;;;;9.97;100.00;102363.69;5048138;28;20045;-54
2023/09/24 07:16:48;;;;;;;19.02;11.00;;;;;;;10.16;100.00;102365.63;5048285;28;20049;-53
2023/09/24 07:19:16;;;;;;;14.00;10.07;;;;;;;10.25;100.00;102367.03;5048202;28;20132;-56
2023/09/24 07:21:46;;;;;;;17.15;10.05;;;;;;;10.39;100.00;102364.75;5051316;28;20555;-55
2023/09/24 07:24:14;;;;;;;14.98;10.70;;;;;;;10.52;100.00;102366.88;5047632;28;20045;-53
2023/09/24 07:26:42;;;;;;;13.63;9.18;;;;;;;10.65;100.00;102365.47;5046489;28;20067;-54
2023/09/24 07:29:12;;;;;;;15.95;9.30;;;;;;;10.73;100.00;102368.63;5047833;28;20076;-55
2023/09/24 07:31:40;;;;;;;14.10;9.57;;;;;;;10.82;100.00;102380.53;5048136;28;20128;-54
2023/09/24 07:34:09;;;;;;;11.68;8.10;;;;;;;11.02;100.00;102382.34;5050692;28;20045;-54
2023/09/24 07:36:37;;;;;;;13.60;8.18;;;;;;;11.11;100.00;102384.59;5046694;28;20045;-54
2023/09/24 07:39:24;;;;;;;12.70;8.00;;;;;;;11.20;100.00;102378.06;5049857;28;20037;-56
2023/09/24 07:41:52;;;;;;;10.40;7.15;;;;;;;11.30;100.00;102381.13;5051515;28;20052;-55
2023/09/24 07:44:22;;;;;;;13.57;7.28;;;;;;;11.42;100.00;102388.50;5047700;28;20115;-55
2023/09/24 07:46:50;;;;;;;12.23;7.72;;;;;;;11.55;100.00;102387.94;5048329;28;20049;-53
2023/09/24 07:49:19;;;;;;;12.05;7.47;;;;;;;11.60;100.00;102389.47;5049881;28;20500;-54
2023/09/24 07:51:48;;;;;;;12.85;6.82;;;;;;;11.79;100.00;102393.91;5047838;28;20075;-53
2023/09/24 07:54:17;;;;;;;11.57;6.75;;;;;;;11.92;100.00;102399.47;5050343;28;20060;-53
2023/09/24 07:56:45;;;;;;;15.30;6.57;;;;;;;12.06;100.00;102401.50;5047187;28;20033;-54
2023/09/24 07:59:16;;;;;;;10.35;5.85;;;;;;;12.21;100.00;102403.41;5045746;28;20112;-55
2023/09/24 08:01:45;;;;;;;11.10;5.88;;;;;;;12.42;100.00;102411.22;5049143;28;20048;-54
2023/09/24 08:04:13;;;;;;;10.20;5.60;;;;;;;12.59;100.00;102413.06;5051344;28;20057;-54
2023/09/24 08:06:42;;;;;;;11.05;6.32;;;;;;;12.73;100.00;102415.03;5051026;28;20052;-55
2023/09/24 08:09:11;;;;;;;8.93;5.20;;;;;;;12.80;100.00;102411.13;5051038;28;20076;-52
2023/09/24 08:11:54;;;;;;;;;;;;;;;12.98;100.00;102417.31;5051780;28;20064;-55
2023/09/24 08:14:22;;;;;;;10.82;5.03;;;;;;;13.16;100.00;102419.00;5051274;28;19927;-55
2023/09/24 08:16:52;;;;;;;10.32;5.20;;;;;;;13.25;100.00;102422.97;5050968;28;20504;-55
2023/09/24 08:19:21;;;;;;;9.32;4.57;;;;;;;13.37;100.00;102421.50;5051244;28;20053;-55
2023/09/24 08:21:49;;;;;;;10.18;5.75;;;;;;;13.47;100.00;102424.50;5048230;28;20044;-53
2023/09/24 08:24:18;;;;;;;10.63;4.53;;;;;;;13.59;100.00;102420.38;5048564;28;20060;-52
2023/09/24 08:26:46;;;;;;;9.57;5.20;;;;;;;13.69;100.00;102422.44;5049705;28;20033;-51
2023/09/24 08:29:14;;;;;;;12.18;4.55;;;;;;;13.78;100.00;102425.53;5047184;28;20055;-52
2023/09/24 08:31:42;;;;;;;12.20;4.43;;;;;;;13.93;100.00;102429.97;5048683;28;20056;-54
2023/09/24 08:34:12;;;;;;;10.07;4.35;;;;;;;14.07;100.00;102421.31;5050912;28;20520;-53
2023/09/24 08:36:40;;;;;;;8.40;3.97;;;;;;;14.30;100.00;102427.09;5047012;28;20044;-51
2023/09/24 08:39:09;;;;;;;8.20;4.38;;;;;;;14.38;100.00;102419.59;5048507;28;20131;-54
2023/09/24 08:41:44;;;;;;;9.50;3.80;;;;;;;14.60;100.00;102431.59;5051025;28;20037;-52
2023/09/24 08:44:15;;;;;;;8.50;3.83;;;;;;;14.75;100.00;102432.56;5048149;28;20048;-53
2023/09/24 08:46:46;;;;;;;6.82;3.85;;;;;;;14.85;100.00;102434.59;5047694;28;20103;-53
2023/09/24 08:49:15;;;;;;;7.72;3.80;;;;;;;15.02;100.00;102441.56;5051138;28;20064;-52
2023/09/24 08:51:46;;;;;;;6.90;3.20;;;;;;;15.17;100.00;102429.19;5051078;28;20065;-52
2023/09/24 08:54:15;;;;;;;9.32;3.70;;;;;;;15.30;100.00;102434.59;5050933;28;20041;-53
2023/09/24 08:56:44;;;;;;;8.48;3.67;;;;;;;15.45;100.00;102429.34;5049505;28;20389;-54
2023/09/24 08:59:12;;;;;;;8.75;3.60;;;;;;;15.65;100.00;102425.44;5053212;28;20044;-53
2023/09/24 09:01:40;;;;;;;9.55;3.25;;;;;;;15.82;100.00;102429.75;5051255;28;20060;-53
2023/09/24 09:04:08;;;;;;;9.45;4.03;;;;;;;15.85;100.00;102425.09;5051705;28;20045;-52
2023/09/24 09:06:38;;;;;;;7.45;3.45;;;;;;;15.97;100.00;102427.94;5054400;28;20052;-52
2023/09/24 09:09:06;;;;;;;6.55;2.95;;;;;;;15.92;100.00;102422.91;5054493;28;20052;-51
2023/09/24 09:11:39;;;;;;;9.90;3.80;;;;;;;16.30;100.00;102424.06;5054314;28;20056;-52
2023/09/24 09:14:09;;;;;;;7.25;3.30;;;;;;;16.44;100.00;102425.84;5054258;28;20048;-52
2023/09/24 09:16:57;;;;;;;7.60;3.28;;;;;;;16.58;100.00;102419.59;5053159;28;20048;-55
2023/09/24 09:19:27;;;;;;;7.55;2.78;;;;;;;16.87;100.00;102421.19;5050876;28;20037;-52
2023/09/24 09:21:56;;;;;;;8.45;2.50;;;;;;;16.92;100.00;102417.41;5050357;28;20439;-54
2023/09/24 09:24:26;;;;;;;8.52;3.00;;;;;;;16.86;100.00;102408.00;5049971;28;20044;-54
2023/09/24 09:26:55;;;;;;;6.60;3.08;;;;;;;17.23;100.00;102408.19;5048914;28;20049;-52
2023/09/24 09:29:25;;;;;;;6.97;2.80;;;;;;;17.43;100.00;102404.16;5050560;28;20045;-55
2023/09/24 09:31:54;;;;;;;8.23;2.72;;;;;;;17.49;100.00;102402.88;5052104;28;20041;-54
2023/09/24 09:34:24;;;;;;;6.65;2.58;;;;;;;17.62;100.00;102397.56;5051478;28;20128;-53
2023/09/24 09:36:52;;;;;;;8.45;3.10;;;;;;;17.69;100.00;102398.81;5050001;28;20088;-53
2023/09/24 09:39:21;;;;;;;7.35;2.45;;;;;;;18.03;100.00;102397.25;5050563;28;20059;-53
2023/09/24 09:41:52;;;;;;;9.93;2.75;;;;;;;18.20;100.00;102397.84;5048549;28;20045;-53
2023/09/24 09:44:25;;;;;;;5.55;2.38;;;;;;;18.39;100.00;102392.88;5050344;28;20057;-52
2023/09/24 09:46:59;;;;;;;8.60;2.83;;;;;;;18.35;100.00;102388.75;5051456;28;20057;-54
2023/09/24 09:49:32;;;;;;;7.03;2.58;;;;;;;18.41;100.00;102385.63;5053651;28;20084;-54
2023/09/24 09:52:02;;;;;;;6.00;2.53;;;;;;;18.66;100.00;102380.25;5053759;28;20723;-53
2023/09/24 09:54:35;;;;;;;8.27;2.50;;;;;;;19.05;100.00;102383.56;5053446;28;20128;-54
2023/09/24 09:57:05;;;;;;;8.10;2.58;;;;;;;19.32;100.00;102383.22;5053239;28;20519;-54
2023/09/24 09:59:35;;;;;;;6.93;2.50;;;;;;;19.36;100.00;102368.69;5053051;28;20417;-53
2023/09/24 10:02:04;;;;;;;6.25;2.42;;;;;;;19.40;100.00;102364.81;5053462;28;20040;-55
2023/09/24 10:04:34;;;;;;;6.72;2.20;;;;;;;19.77;100.00;102363.69;5053654;28;20045;-55
2023/09/24 10:07:06;;;;;;;7.18;1.80;;;;;;;19.89;100.00;102356.53;5052152;28;20053;-53
2023/09/24 10:09:35;;;;;;;6.13;2.10;;;;;;;20.03;100.00;102353.59;5047217;28;20049;-53
2023/09/24 10:12:06;;;;;;;7.95;2.00;;;;;;;19.99;100.00;102349.47;5048500;28;20052;-54
2023/09/24 10:14:37;;;;;;;7.60;2.10;;;;;;;20.28;100.00;102346.22;5050025;28;20411;-53
2023/09/24 10:17:29;;;;;;;7.30;1.70;;;;;;;20.46;100.00;102343.81;5050026;28;20514;-53
2023/09/24 10:20:06;;;;;;;7.17;2.03;;;;;;;20.70;100.00;102346.28;5039448;28;20080;-53
2023/09/24 10:22:38;;;;;;;7.95;2.08;;;;;;;20.97;100.00;102344.91;5049511;28;20045;-52
2023/09/24 10:25:36;;;;;;;6.65;2.40;;;;;;;20.66;100.00;102344.81;5047668;28;20045;-54
2023/09/24 10:28:07;;;;;;;6.75;2.22;;;;;;;20.67;100.00;102346.53;5049366;28;20056;-53
2023/09/24 10:31:04;;;;;;;6.13;2.00;;;;;;;20.91;100.00;102346.31;5049630;28;20043;-53
2023/09/24 10:33:54;;;;;;;7.13;2.17;;;;;;;21.27;100.00;102343.25;5049762;28;20133;-54
2023/09/24 10:36:28;;;;;;;6.22;1.92;;;;;;;21.19;100.00;102345.75;5049170;28;20083;-53
2023/09/24 10:39:07;;;;;;;6.50;1.92;;;;;;;21.25;100.00;102339.84;5049215;28;20102;-51
2023/09/24 10:41:57;;;;;;;6.32;2.10;;;;;;;21.36;100.00;102346.94;5045482;28;20056;-53
2023/09/24 10:44:27;;;;;;;4.80;1.67;;;;;;;21.71;100.00;102343.81;5048763;28;20055;-54
2023/09/24 10:46:56;;;;;;;5.95;2.03;;;;;;;21.60;100.00;102341.28;5048511;28;20049;-53
2023/09/24 10:49:27;;;;;;;6.35;1.77;;;;;;;21.70;100.00;102338.63;5048904;28;20053;-53
2023/09/24 10:51:58;;;;;;;4.82;1.58;;;;;;;21.91;100.00;102333.16;5049021;28;20049;-53
2023/09/24 10:54:28;;;;;;;6.32;1.92;;;;;;;21.81;100.00;102334.97;5048159;28;20037;-53
2023/09/24 10:56:58;;;;;;;4.60;1.70;;;;;;;21.98;100.00;102325.41;5047378;28;20045;-53
2023/09/24 10:59:33;;;;;;;5.35;1.60;;;;;;;22.32;100.00;102327.66;5048782;28;20083;-52
2023/09/24 11:02:15;;;;;;;7.43;1.80;;;;;;;22.15;100.00;102331.91;5049208;28;20447;-53
2023/09/24 11:04:48;;;;;;;4.82;1.55;;;;;;;22.64;100.00;102323.88;5049217;28;20510;-53
2023/09/24 11:07:16;;;;;;;7.80;2.03;;;;;;;22.96;98.34;102320.84;5050923;28;20551;-54
2023/09/24 11:09:49;;;;;;;4.40;1.50;;;;;;;22.85;95.87;102321.00;5047974;28;20094;-53
2023/09/24 11:12:19;;;;;;;6.60;1.92;;;;;;;22.85;100.00;102326.34;5048323;28;20443;-54
2023/09/24 11:14:54;;;;;;;5.78;1.27;;;;;;;23.13;97.72;102327.28;5049088;28;20052;-54
2023/09/24 11:17:42;;;;;;;6.38;1.40;;;;;;;22.98;93.39;102329.56;5050166;28;20051;-54
2023/09/24 11:20:10;;;;;;;6.70;1.33;;;;;;;23.01;88.64;102331.94;5048660;28;20106;-54
2023/09/24 11:22:38;;;;;;;6.22;1.65;;;;;;;22.91;87.83;102328.47;5048788;28;20432;-55
2023/09/24 11:25:09;;;;;;;4.47;1.35;;;;;;;23.25;87.76;102330.66;5051012;28;20041;-52
2023/09/24 11:27:47;;;;;;;5.18;1.40;;;;;;;23.27;86.84;102323.28;5051876;28;20049;-53
2023/09/24 11:30:16;;;;;;;4.88;1.42;;;;;;;23.61;86.22;102323.53;5051710;28;20385;-53
2023/09/24 11:32:45;;;;;;;7.00;1.92;;;;;;;23.70;84.50;102324.47;5052003;28;20384;-52